createdAt,value
2023-04-20T00:00:18.321Z,98421.25
2023-04-20T00:01:20.137Z,98426.50
2023-04-20T00:02:21.686Z,98425.44
2023-04-20T00:03:23.404Z,98420.97
2023-04-20T00:04:24.928Z,98418.63
2023-04-20T00:05:26.336Z,98418.63
2023-04-20T00:06:27.802Z,98420.72
2023-04-20T00:07:29.189Z,98417.56
2023-04-20T00:08:30.495Z,98417.56
2023-04-20T00:09:31.861Z,98414.41
2023-04-20T00:10:33.280Z,98417.03
2023-04-20T00:11:34.545Z,98411.00
2023-04-20T00:12:36.217Z,98407.06
2023-04-20T00:13:37.492Z,98406.28
2023-04-20T00:14:38.826Z,98408.66
2023-04-20T00:15:40.315Z,98407.59
2023-04-20T00:16:42.272Z,98408.13
2023-04-20T00:17:43.745Z,98403.13
2023-04-20T00:18:48.690Z,98397.88
2023-04-20T00:19:49.997Z,98402.34
2023-04-20T00:20:51.364Z,98395.53
2023-04-20T00:21:52.664Z,98398.41
2023-04-20T00:22:54.195Z,98397.63
2023-04-20T00:23:55.565Z,98392.63
2023-04-20T00:24:56.927Z,98396.03
2023-04-20T00:25:58.322Z,98392.63
2023-04-20T00:26:59.640Z,98393.13
2023-04-20T00:28:00.970Z,98388.16
2023-04-20T00:29:02.297Z,98387.38
2023-04-20T00:30:03.945Z,98383.69
2023-04-20T00:31:05.887Z,98386.06
2023-04-20T00:32:07.260Z,98386.84
2023-04-20T00:33:08.586Z,98383.44
2023-04-20T00:34:10.065Z,98379.50
2023-04-20T00:35:11.371Z,98377.16
2023-04-20T00:36:15.520Z,98374.75
2023-04-20T00:37:16.965Z,98375.03
2023-04-20T00:38:18.257Z,98373.47
2023-04-20T00:39:19.650Z,98374.25
2023-04-20T00:40:21.246Z,98367.66
2023-04-20T00:41:22.613Z,98366.09
2023-04-20T00:42:23.967Z,98366.63
2023-04-20T00:43:26.274Z,98361.41
2023-04-20T00:44:27.545Z,98366.09
2023-04-20T00:45:28.867Z,98362.41
2023-04-20T00:46:30.333Z,98355.09
2023-04-20T00:47:32.108Z,98364.00
2023-04-20T00:48:36.413Z,98353.25
2023-04-20T00:49:38.484Z,98359.00
2023-04-20T00:50:40.779Z,98365.84
2023-04-20T00:51:42.447Z,98354.31
2023-04-20T00:52:44.925Z,98349.06
2023-04-20T00:53:46.387Z,98347.22
2023-04-20T00:54:48.490Z,98349.84
2023-04-20T00:55:51.101Z,98350.34
2023-04-20T00:56:53.943Z,98351.41
2023-04-20T00:57:55.474Z,98344.06
2023-04-20T00:58:56.861Z,98339.88
2023-04-20T00:59:58.452Z,98345.09
2023-04-20T01:00:59.800Z,98341.69
2023-04-20T01:02:01.251Z,98348.78
2023-04-20T01:03:02.917Z,98336.19
2023-04-20T01:04:04.555Z,98331.22
2023-04-20T01:05:06.273Z,98335.94
2023-04-20T01:06:08.757Z,98329.66
2023-04-20T01:07:11.419Z,98325.47
2023-04-20T01:08:12.969Z,98331.47
2023-04-20T01:09:15.847Z,98328.09
2023-04-20T01:10:17.586Z,98333.31
2023-04-20T01:11:18.969Z,98318.09
2023-04-20T01:12:20.372Z,98326.75
2023-04-20T01:13:21.757Z,98322.03
2023-04-20T01:14:25.389Z,98324.66
2023-04-20T01:15:26.702Z,98319.16
2023-04-20T01:16:28.138Z,98319.41
2023-04-20T01:17:29.576Z,98319.41
2023-04-20T01:18:42.192Z,98317.31
2023-04-20T01:19:43.616Z,98317.56
2023-04-20T01:20:45.376Z,98313.91
2023-04-20T01:21:48.795Z,98311.53
2023-04-20T01:22:52.100Z,98306.81
2023-04-20T01:23:53.476Z,98307.34
2023-04-20T01:24:54.827Z,98312.56
2023-04-20T01:25:58.157Z,98309.94
2023-04-20T01:26:59.995Z,98301.81
2023-04-20T01:28:02.193Z,98305.25
2023-04-20T01:29:03.928Z,98299.47
2023-04-20T01:30:06.181Z,98302.09
2023-04-20T01:31:08.682Z,98300.78
2023-04-20T01:32:10.873Z,98300.78
2023-04-20T01:33:12.205Z,98295.78
2023-04-20T01:34:13.813Z,98298.41
2023-04-20T01:35:15.609Z,98293.44
2023-04-20T01:36:19.356Z,98295.78
2023-04-20T01:37:20.711Z,98291.09
2023-04-20T01:38:23.666Z,98290.31
2023-04-20T01:39:25.340Z,98287.13
2023-04-20T01:40:28.290Z,98289.47
2023-04-20T01:41:29.703Z,98283.72
2023-04-20T01:42:31.483Z,98282.16
2023-04-20T01:43:34.283Z,98282.16
2023-04-20T01:44:35.648Z,98278.75
2023-04-20T01:45:37.011Z,98279.53
2023-04-20T01:46:39.142Z,98278.75
2023-04-20T01:47:41.733Z,98272.97
2023-04-20T01:48:43.144Z,98271.41
2023-04-20T01:49:44.547Z,98272.72
2023-04-20T01:50:45.838Z,98272.19
2023-04-20T01:51:47.165Z,98272.72
2023-04-20T01:52:49.246Z,98271.91
2023-04-20T01:53:51.940Z,98267.50
2023-04-20T01:54:53.349Z,98265.88
2023-04-20T01:55:54.928Z,98265.09
2023-04-20T01:56:57.436Z,98261.19
2023-04-20T01:57:58.806Z,98267.47
2023-04-20T01:59:00.179Z,98267.47
2023-04-20T02:00:01.656Z,98273.22
2023-04-20T02:01:03.207Z,98263.25
2023-04-20T02:02:04.587Z,98260.66
2023-04-20T02:03:07.647Z,98265.09
2023-04-20T02:04:09.095Z,98264.03
2023-04-20T02:05:10.526Z,98257.50
2023-04-20T02:06:12.015Z,98261.41
2023-04-20T02:07:13.421Z,98261.69
2023-04-20T02:08:14.826Z,98259.06
2023-04-20T02:09:16.370Z,98265.63
2023-04-20T02:10:18.342Z,98260.38
2023-04-20T02:11:19.908Z,98258.78
2023-04-20T02:12:21.250Z,98254.06
2023-04-20T02:13:22.635Z,98254.84
2023-04-20T02:14:23.985Z,98250.66
2023-04-20T02:15:25.311Z,98256.91
2023-04-20T02:16:26.691Z,98252.72
2023-04-20T02:17:28.160Z,98251.66
2023-04-20T02:18:29.706Z,98253.50
2023-04-20T02:19:31.173Z,98252.72
2023-04-20T02:20:32.564Z,98251.41
2023-04-20T02:21:34.413Z,98252.69
2023-04-20T02:22:36.671Z,98249.28
2023-04-20T02:23:37.968Z,98243.00
2023-04-20T02:24:39.403Z,98241.44
2023-04-20T02:25:40.802Z,98244.31
2023-04-20T02:26:42.132Z,98241.44
2023-04-20T02:27:43.481Z,98243.50
2023-04-20T02:28:46.731Z,98237.47
2023-04-20T02:29:48.098Z,98240.88
2023-04-20T02:30:49.591Z,98238.25
2023-04-20T02:31:51.154Z,98229.38
2023-04-20T02:32:52.534Z,98235.91
2023-04-20T02:33:53.945Z,98231.47
2023-04-20T02:34:55.308Z,98235.91
2023-04-20T02:35:56.636Z,98240.88
2023-04-20T02:36:57.920Z,98230.41
2023-04-20T02:37:59.252Z,98224.63
2023-04-20T02:39:00.536Z,98229.59
2023-04-20T02:40:01.937Z,98217.06
2023-04-20T02:41:04.195Z,98222.28
2023-04-20T02:42:06.038Z,98224.13
2023-04-20T02:43:08.008Z,98220.19
2023-04-20T02:44:09.713Z,98220.19
2023-04-20T02:45:11.999Z,98219.38
2023-04-20T02:46:15.075Z,98225.41
2023-04-20T02:47:16.870Z,98218.06
2023-04-20T02:48:18.240Z,98219.66
2023-04-20T02:49:19.627Z,98225.16
2023-04-20T02:50:21.415Z,98208.91
2023-04-20T02:51:35.794Z,98210.22
2023-04-20T02:52:37.239Z,98209.19
2023-04-20T02:53:38.949Z,98210.22
2023-04-20T02:54:55.858Z,98206.81
2023-04-20T02:55:57.330Z,98211.81
2023-04-20T02:57:13.974Z,98204.97
2023-04-20T02:58:15.415Z,98211.81
2023-04-20T02:59:35.630Z,98204.19
2023-04-20T03:00:41.199Z,98201.84
2023-04-20T03:01:43.744Z,98198.16
2023-04-20T03:02:49.159Z,98201.06
2023-04-20T03:03:50.860Z,98201.84
2023-04-20T03:04:52.352Z,98201.06
2023-04-20T03:05:56.782Z,98198.44
2023-04-20T03:06:58.802Z,98193.72
2023-04-20T03:08:03.844Z,98195.28
2023-04-20T03:09:05.199Z,98198.94
2023-04-20T03:10:25.059Z,98196.88
2023-04-20T03:11:34.177Z,98192.41
2023-04-20T03:12:35.688Z,98199.22
2023-04-20T03:13:49.852Z,98199.75
2023-04-20T03:14:51.399Z,98199.25
2023-04-20T03:15:56.623Z,98195.31
2023-04-20T03:17:05.532Z,98195.81
2023-04-20T03:18:06.981Z,98192.41
2023-04-20T03:19:08.387Z,98194.50
2023-04-20T03:20:10.498Z,98192.41
2023-04-20T03:21:11.833Z,98193.19
2023-04-20T03:22:13.737Z,98193.97
2023-04-20T03:23:15.132Z,98196.59
2023-04-20T03:24:17.457Z,98207.31
2023-04-20T03:25:19.300Z,98198.41
2023-04-20T03:26:32.844Z,98199.72
2023-04-20T03:28:03.398Z,98199.72
2023-04-20T03:29:05.048Z,98201.81
2023-04-20T03:30:07.056Z,98197.63
2023-04-20T03:31:08.426Z,98194.25
2023-04-20T03:32:09.808Z,98196.31
2023-04-20T03:33:11.256Z,98188.22
2023-04-20T03:34:12.623Z,98191.84
2023-04-20T03:35:14.246Z,98190.03
2023-04-20T03:36:15.615Z,98186.88
2023-04-20T03:37:17.543Z,98191.06
2023-04-20T03:38:21.655Z,98189.25
2023-04-20T03:39:23.010Z,98190.84
2023-04-20T03:40:24.610Z,98198.16
2023-04-20T03:41:25.924Z,98189.50
2023-04-20T03:42:27.232Z,98198.41
2023-04-20T03:43:29.214Z,98193.94
2023-04-20T03:44:30.560Z,98195.22
2023-04-20T03:45:31.957Z,98199.16
2023-04-20T03:46:33.312Z,98195.50
2023-04-20T03:47:34.735Z,98192.88
2023-04-20T03:48:36.176Z,98195.50
2023-04-20T03:49:38.174Z,98188.69
2023-04-20T03:50:39.554Z,98199.66
2023-04-20T03:51:40.839Z,98200.69
2023-04-20T03:52:42.118Z,98198.09
2023-04-20T03:53:45.097Z,98191.28
2023-04-20T03:54:48.186Z,98192.84
2023-04-20T03:55:51.174Z,98195.97
2023-04-20T03:56:55.509Z,98188.41
2023-04-20T03:57:57.598Z,98192.56
2023-04-20T03:58:59.625Z,98194.41
2023-04-20T04:00:01.571Z,98193.59
2023-04-20T04:01:08.189Z,98198.53
2023-04-20T04:02:11.778Z,98187.00
2023-04-20T04:03:13.464Z,98196.16
2023-04-20T04:04:15.095Z,98196.16
2023-04-20T04:05:16.970Z,98193.53
2023-04-20T04:06:18.394Z,98189.38
2023-04-20T04:07:19.731Z,98195.38
2023-04-20T04:08:21.624Z,98187.53
2023-04-20T04:09:23.003Z,98191.19
2023-04-20T04:10:24.359Z,98190.38
2023-04-20T04:11:25.716Z,98193.00
2023-04-20T04:12:27.376Z,98191.44
2023-04-20T04:13:28.898Z,98191.97
2023-04-20T04:14:30.372Z,98193.53
2023-04-20T04:15:32.534Z,98194.31
2023-04-20T04:16:38.870Z,98189.34
2023-04-20T04:17:40.893Z,98190.63
2023-04-20T04:18:44.209Z,98190.88
2023-04-20T04:19:48.543Z,98186.69
2023-04-20T04:20:49.900Z,98184.09
2023-04-20T04:21:51.272Z,98183.31
2023-04-20T04:22:52.790Z,98190.88
2023-04-20T04:24:05.688Z,98185.38
2023-04-20T04:25:30.072Z,98181.47
2023-04-20T04:26:31.436Z,98180.13
2023-04-20T04:27:33.264Z,98190.88
2023-04-20T04:28:34.582Z,98189.03
2023-04-20T04:29:50.271Z,98185.84
2023-04-20T04:30:53.778Z,98188.47
2023-04-20T04:31:55.193Z,98185.63
2023-04-20T04:32:56.557Z,98185.63
2023-04-20T04:33:58.161Z,98190.59
2023-04-20T04:35:07.933Z,98184.84
2023-04-20T04:36:09.785Z,98187.47
2023-04-20T04:37:11.758Z,98187.47
2023-04-20T04:38:17.638Z,98185.63
2023-04-20T04:39:21.961Z,98190.31
2023-04-20T04:40:31.378Z,98181.97
2023-04-20T04:41:36.424Z,98182.22
2023-04-20T04:42:48.210Z,98178.06
2023-04-20T04:43:49.533Z,98180.41
2023-04-20T04:44:59.429Z,98179.38
2023-04-20T04:46:10.752Z,98187.22
2023-04-20T04:47:12.199Z,98178.31
2023-04-20T04:48:13.674Z,98183.06
2023-04-20T04:49:15.221Z,98180.97
2023-04-20T04:50:16.640Z,98185.97
2023-04-20T04:51:19.705Z,98184.38
2023-04-20T04:52:21.199Z,98184.38
2023-04-20T04:53:22.825Z,98180.22
2023-04-20T04:54:24.305Z,98176.06
2023-04-20T04:55:25.605Z,98177.41
2023-04-20T04:56:26.866Z,98175.31
2023-04-20T04:57:28.386Z,98178.19
2023-04-20T04:58:29.951Z,98172.44
2023-04-20T04:59:31.389Z,98176.13
2023-04-20T05:00:32.854Z,98177.19
2023-04-20T05:01:34.235Z,98184.53
2023-04-20T05:02:35.732Z,98179.56
2023-04-20T05:03:37.413Z,98186.13
2023-04-20T05:04:39.038Z,98181.69
2023-04-20T05:05:40.374Z,98182.47
2023-04-20T05:06:41.749Z,98190.63
2023-04-20T05:07:43.035Z,98188.78
2023-04-20T05:08:46.259Z,98179.91
2023-04-20T05:09:47.588Z,98181.22
2023-04-20T05:10:48.925Z,98188.03
2023-04-20T05:11:50.286Z,98185.97
2023-04-20T05:12:51.790Z,98189.63
2023-04-20T05:13:53.087Z,98189.63
2023-04-20T05:14:54.445Z,98181.81
2023-04-20T05:15:55.773Z,98183.88
2023-04-20T05:16:58.545Z,98184.44
2023-04-20T05:17:59.934Z,98191.47
2023-04-20T05:19:01.475Z,98187.19
2023-04-20T05:20:02.943Z,98187.72
2023-04-20T05:21:04.307Z,98184.41
2023-04-20T05:22:05.680Z,98185.63
2023-04-20T05:23:07.046Z,98189.44
2023-04-20T05:24:08.388Z,98178.88
2023-04-20T05:25:11.624Z,98178.75
2023-04-20T05:26:14.592Z,98190.91
2023-04-20T05:27:15.896Z,98187.38
2023-04-20T05:28:17.288Z,98184.34
2023-04-20T05:29:18.735Z,98181.09
2023-04-20T05:30:21.916Z,98185.56
2023-04-20T05:31:23.714Z,98185.19
2023-04-20T05:32:25.488Z,98181.22
2023-04-20T05:33:26.883Z,98185.47
2023-04-20T05:34:28.221Z,98184.38
2023-04-20T05:35:29.501Z,98175.09
2023-04-20T05:36:30.840Z,98178.66
2023-04-20T05:37:32.302Z,98184.09
2023-04-20T05:38:34.810Z,98181.13
2023-04-20T05:39:36.092Z,98183.38
2023-04-20T05:40:37.597Z,98187.16
2023-04-20T05:41:38.971Z,98185.00
2023-04-20T05:42:42.626Z,98186.06
2023-04-20T05:43:44.050Z,98184.16
2023-04-20T05:44:45.321Z,98181.50
2023-04-20T05:45:48.065Z,98180.34
2023-04-20T05:46:49.439Z,98182.09
2023-04-20T05:47:57.335Z,98184.41
2023-04-20T05:48:58.750Z,98181.88
2023-04-20T05:50:00.174Z,98179.41
2023-04-20T05:51:01.525Z,98187.88
2023-04-20T05:52:02.854Z,98199.09
2023-04-20T05:53:04.256Z,98185.63
2023-04-20T05:54:05.665Z,98183.78
2023-04-20T05:55:07.300Z,98185.31
2023-04-20T05:56:08.630Z,98193.19
2023-04-20T05:57:09.972Z,98186.16
2023-04-20T05:58:11.392Z,98181.41
2023-04-20T05:59:12.787Z,98185.66
2023-04-20T06:00:16.052Z,98191.44
2023-04-20T06:01:17.729Z,98181.22
2023-04-20T06:02:19.404Z,98183.06
2023-04-20T06:03:20.914Z,98186.13
2023-04-20T06:04:22.672Z,98186.72
2023-04-20T06:05:24.321Z,98183.09
2023-04-20T06:06:25.853Z,98182.59
2023-04-20T06:07:27.173Z,98182.06
2023-04-20T06:08:28.575Z,98183.13
2023-04-20T06:09:29.924Z,98180.25
2023-04-20T06:10:31.197Z,98186.59
2023-04-20T06:11:32.656Z,98183.88
2023-04-20T06:12:34.800Z,98178.78
2023-04-20T06:13:36.089Z,98178.88
2023-04-20T06:14:37.470Z,98183.00
2023-04-20T06:15:38.875Z,98177.63
2023-04-20T06:16:40.550Z,98184.91
2023-04-20T06:17:41.988Z,98178.63
2023-04-20T06:18:43.600Z,98184.75
2023-04-20T06:19:44.954Z,98174.47
2023-04-20T06:20:46.524Z,98178.00
2023-04-20T06:21:47.883Z,98171.66
2023-04-20T06:22:49.567Z,98169.53
2023-04-20T06:23:50.945Z,98165.81
2023-04-20T06:24:52.287Z,98170.13
2023-04-20T06:25:53.574Z,98165.84
2023-04-20T06:26:55.009Z,98164.78
2023-04-20T06:27:56.566Z,98167.66
2023-04-20T06:28:57.854Z,98171.06
2023-04-20T06:29:59.165Z,98168.72
2023-04-20T06:31:00.530Z,98163.06
2023-04-20T06:32:02.018Z,98170.69
2023-04-20T06:33:03.496Z,98168.72
2023-04-20T06:34:04.949Z,98163.41
2023-04-20T06:35:07.019Z,98164.09
2023-04-20T06:36:08.416Z,98163.00
2023-04-20T06:37:09.688Z,98162.41
2023-04-20T06:38:13.322Z,98164.00
2023-04-20T06:39:16.812Z,98164.75
2023-04-20T06:40:18.941Z,98158.81
2023-04-20T06:41:20.238Z,98157.09
2023-04-20T06:42:22.395Z,98159.59
2023-04-20T06:43:24.507Z,98164.53
2023-04-20T06:44:27.003Z,98158.16
2023-04-20T06:45:28.423Z,98159.91
2023-04-20T06:46:29.796Z,98157.47
2023-04-20T06:47:31.282Z,98159.78
2023-04-20T06:48:33.239Z,98163.00
2023-04-20T06:49:34.626Z,98158.53
2023-04-20T06:50:36.060Z,98155.94
2023-04-20T06:51:38.396Z,98154.13
2023-04-20T06:52:40.910Z,98162.00
2023-04-20T06:53:42.304Z,98157.78
2023-04-20T06:54:43.622Z,98161.50
2023-04-20T06:55:45.062Z,98158.09
2023-04-20T06:56:46.344Z,98153.69
2023-04-20T06:57:47.729Z,98153.72
2023-04-20T06:58:49.037Z,98162.22
2023-04-20T06:59:50.300Z,98158.78
2023-04-20T07:00:51.592Z,98155.06
2023-04-20T07:01:52.914Z,98157.53
2023-04-20T07:02:54.343Z,98161.56
2023-04-20T07:03:55.849Z,98161.94
2023-04-20T07:05:01.007Z,98156.72
2023-04-20T07:06:02.392Z,98153.06
2023-04-20T07:07:03.838Z,98150.84
2023-04-20T07:08:05.306Z,98158.50
2023-04-20T07:09:06.703Z,98158.31
2023-04-20T07:10:09.313Z,98162.50
2023-04-20T07:11:10.687Z,98152.16
2023-04-20T07:12:12.016Z,98157.53
2023-04-20T07:13:13.376Z,98152.41
2023-04-20T07:14:14.717Z,98159.16
2023-04-20T07:15:16.013Z,98152.75
2023-04-20T07:16:17.498Z,98153.59
2023-04-20T07:17:18.869Z,98152.22
2023-04-20T07:18:20.195Z,98152.91
2023-04-20T07:19:21.651Z,98157.16
2023-04-20T07:20:23.121Z,98161.88
2023-04-20T07:21:24.402Z,98155.47
2023-04-20T07:22:25.719Z,98157.38
2023-04-20T07:23:27.120Z,98147.06
2023-04-20T07:24:28.430Z,98152.38
2023-04-20T07:25:31.803Z,98149.41
2023-04-20T07:26:33.210Z,98144.44
2023-04-20T07:27:40.040Z,98148.97
2023-04-20T07:28:41.440Z,98145.19
2023-04-20T07:29:42.885Z,98148.94
2023-04-20T07:30:44.279Z,98141.78
2023-04-20T07:31:45.672Z,98145.22
2023-04-20T07:32:47.061Z,98142.25
2023-04-20T07:33:48.384Z,98138.97
2023-04-20T07:34:49.821Z,98146.44
2023-04-20T07:35:51.761Z,98143.13
2023-04-20T07:36:53.076Z,98145.75
2023-04-20T07:37:54.376Z,98143.72
2023-04-20T07:38:55.665Z,98147.28
2023-04-20T07:39:57.070Z,98141.59
2023-04-20T07:40:58.437Z,98136.06
2023-04-20T07:41:59.758Z,98143.09
2023-04-20T07:43:01.066Z,98142.03
2023-04-20T07:44:02.460Z,98141.50
2023-04-20T07:45:07.659Z,98139.19
2023-04-20T07:46:09.052Z,98138.88
2023-04-20T07:47:10.376Z,98139.63
2023-04-20T07:48:11.739Z,98141.03
2023-04-20T07:49:13.048Z,98146.34
2023-04-20T07:50:14.826Z,98140.63
2023-04-20T07:51:16.183Z,98140.31
2023-04-20T07:52:17.655Z,98138.53
2023-04-20T07:53:19.088Z,98149.13
2023-04-20T07:54:20.382Z,98146.66
2023-04-20T07:55:21.800Z,98146.09
2023-04-20T07:56:23.260Z,98153.88
2023-04-20T07:57:25.468Z,98149.31
2023-04-20T07:58:26.740Z,98144.34
2023-04-20T07:59:28.027Z,98142.88
2023-04-20T08:00:29.657Z,98144.97
2023-04-20T08:01:31.021Z,98148.31
2023-04-20T08:02:32.979Z,98148.63
2023-04-20T08:03:34.650Z,98140.09
2023-04-20T08:04:37.169Z,98141.38
2023-04-20T08:05:39.389Z,98136.19
2023-04-20T08:06:40.753Z,98140.28
2023-04-20T08:07:42.152Z,98138.97
2023-04-20T08:08:43.576Z,98144.72
2023-04-20T08:09:45.455Z,98142.66
2023-04-20T08:10:46.777Z,98146.75
2023-04-20T08:11:48.209Z,98146.63
2023-04-20T08:12:51.984Z,98145.66
2023-04-20T08:13:55.717Z,98139.47
2023-04-20T08:14:58.134Z,98136.38
2023-04-20T08:15:59.432Z,98137.56
2023-04-20T08:17:00.760Z,98132.03
2023-04-20T08:18:02.473Z,98129.53
2023-04-20T08:19:03.846Z,98124.34
2023-04-20T08:20:05.984Z,98132.03
2023-04-20T08:21:07.431Z,98138.75
2023-04-20T08:22:08.782Z,98135.50
2023-04-20T08:23:10.153Z,98132.13
2023-04-20T08:24:11.573Z,98134.47
2023-04-20T08:25:12.911Z,98131.72
2023-04-20T08:26:17.435Z,98131.03
2023-04-20T08:27:18.808Z,98136.81
2023-04-20T08:28:32.910Z,98132.19
2023-04-20T08:29:38.346Z,98130.84
2023-04-20T08:30:40.597Z,98130.69
2023-04-20T08:31:41.903Z,98127.91
2023-04-20T08:32:43.241Z,98124.66
2023-04-20T08:33:44.647Z,98133.19
2023-04-20T08:34:45.920Z,98128.75
2023-04-20T08:35:47.193Z,98127.56
2023-04-20T08:36:48.588Z,98125.22
2023-04-20T08:37:50.061Z,98121.81
2023-04-20T08:38:54.982Z,98123.72
2023-04-20T08:39:56.346Z,98129.28
2023-04-20T08:40:58.514Z,98125.47
2023-04-20T08:41:59.911Z,98128.97
2023-04-20T08:43:01.256Z,98125.41
2023-04-20T08:44:02.673Z,98121.84
2023-04-20T08:45:04.260Z,98117.53
2023-04-20T08:46:09.095Z,98124.19
2023-04-20T08:47:10.930Z,98124.00
2023-04-20T08:48:12.873Z,98128.72
2023-04-20T08:49:18.574Z,98127.16
2023-04-20T08:50:20.569Z,98119.94
2023-04-20T08:51:22.528Z,98127.81
2023-04-20T08:52:23.868Z,98124.88
2023-04-20T08:53:25.267Z,98125.78
2023-04-20T08:54:26.619Z,98124.09
2023-04-20T08:55:28.068Z,98126.63
2023-04-20T08:56:34.436Z,98127.88
2023-04-20T08:57:35.717Z,98120.56
2023-04-20T08:58:37.097Z,98126.91
2023-04-20T08:59:38.426Z,98127.28
2023-04-20T09:00:49.402Z,98130.59
2023-04-20T09:01:50.776Z,98123.91
2023-04-20T09:02:56.101Z,98123.16
2023-04-20T09:03:59.444Z,98123.16
2023-04-20T09:05:04.569Z,98129.81
2023-04-20T09:06:13.533Z,98131.78
2023-04-20T09:07:19.407Z,98119.06
2023-04-20T09:08:20.742Z,98122.19
2023-04-20T09:09:23.891Z,98132.16
2023-04-20T09:10:26.491Z,98124.25
2023-04-20T09:11:28.658Z,98123.06
2023-04-20T09:12:41.061Z,98117.53
2023-04-20T09:13:42.414Z,98124.06
2023-04-20T09:14:44.962Z,98127.34
2023-04-20T09:15:46.379Z,98121.47
2023-04-20T09:16:53.166Z,98127.06
2023-04-20T09:17:54.927Z,98116.91
2023-04-20T09:18:57.136Z,98122.19
2023-04-20T09:19:58.476Z,98123.16
2023-04-20T09:21:08.253Z,98123.16
2023-04-20T09:22:09.606Z,98125.63
2023-04-20T09:23:16.174Z,98124.91
2023-04-20T09:24:21.063Z,98124.50
2023-04-20T09:25:23.933Z,98119.28
2023-04-20T09:26:25.357Z,98123.53
2023-04-20T09:27:27.912Z,98124.75
2023-04-20T09:28:37.045Z,98113.28
2023-04-20T09:29:38.384Z,98122.00
2023-04-20T09:30:44.585Z,98119.66
2023-04-20T09:31:46.571Z,98120.75
2023-04-20T09:32:47.963Z,98123.66
2023-04-20T09:33:59.706Z,98117.47
2023-04-20T09:35:01.161Z,98118.25
2023-04-20T09:36:04.369Z,98113.78
2023-04-20T09:37:08.973Z,98115.97
2023-04-20T09:38:14.826Z,98113.94
2023-04-20T09:39:18.306Z,98114.59
2023-04-20T09:40:19.912Z,98118.03
2023-04-20T09:41:21.471Z,98114.44
2023-04-20T09:42:27.331Z,98115.47
2023-04-20T09:43:29.462Z,98112.66
2023-04-20T09:44:32.329Z,98107.72
2023-04-20T09:45:34.383Z,98105.34
2023-04-20T09:46:37.901Z,98104.28
2023-04-20T09:47:39.283Z,98107.91
2023-04-20T09:48:40.800Z,98104.50
2023-04-20T09:49:45.357Z,98104.22
2023-04-20T09:50:49.942Z,98101.25
2023-04-20T09:51:52.258Z,98104.22
2023-04-20T09:52:54.211Z,98096.16
2023-04-20T09:53:57.177Z,98109.53
2023-04-20T09:54:58.727Z,98108.75
2023-04-20T09:56:01.046Z,98103.28
2023-04-20T09:57:02.345Z,98098.88
2023-04-20T09:58:05.044Z,98107.19
2023-04-20T09:59:07.394Z,98110.50
2023-04-20T10:00:09.258Z,98108.34
2023-04-20T10:01:11.002Z,98110.19
2023-04-20T10:02:13.494Z,98106.78
2023-04-20T10:03:19.557Z,98101.78
2023-04-20T10:04:21.796Z,98101.03
2023-04-20T10:05:34.240Z,98102.09
2023-04-20T10:06:36.305Z,98095.28
2023-04-20T10:07:37.840Z,98095.47
2023-04-20T10:08:42.227Z,98094.56
2023-04-20T10:09:43.651Z,98100.31
2023-04-20T10:10:50.293Z,98094.16
2023-04-20T10:11:54.585Z,98101.94
2023-04-20T10:13:00.354Z,98098.00
2023-04-20T10:14:23.508Z,98100.56
2023-04-20T10:15:36.651Z,98091.34
2023-04-20T10:16:37.979Z,98101.56
2023-04-20T10:17:39.405Z,98099.41
2023-04-20T10:18:40.949Z,98094.41
2023-04-20T10:19:43.817Z,98092.19
2023-04-20T10:20:45.276Z,98085.59
2023-04-20T10:21:48.995Z,98088.09
2023-04-20T10:22:55.331Z,98087.78
2023-04-20T10:23:56.605Z,98082.56
2023-04-20T10:24:58.680Z,98083.53
2023-04-20T10:26:00.270Z,98083.66
2023-04-20T10:27:01.670Z,98083.06
2023-04-20T10:28:05.232Z,98084.25
2023-04-20T10:29:06.654Z,98086.69
2023-04-20T10:30:11.651Z,98079.66
2023-04-20T10:31:14.698Z,98078.19
2023-04-20T10:32:26.392Z,98083.66
2023-04-20T10:33:27.753Z,98086.03
2023-04-20T10:34:33.210Z,98081.06
2023-04-20T10:35:44.598Z,98074.44
2023-04-20T10:36:47.189Z,98083.19
2023-04-20T10:37:50.777Z,98087.13
2023-04-20T10:38:53.345Z,98089.31
2023-04-20T10:39:54.740Z,98083.69
2023-04-20T10:40:56.533Z,98082.91
2023-04-20T10:41:58.086Z,98076.38
2023-04-20T10:42:59.462Z,98076.50
2023-04-20T10:44:09.960Z,98078.53
2023-04-20T10:45:12.163Z,98078.38
2023-04-20T10:46:20.683Z,98073.56
2023-04-20T10:47:28.402Z,98075.09
2023-04-20T10:48:29.821Z,98069.06
2023-04-20T10:49:31.119Z,98065.34
2023-04-20T10:50:32.512Z,98068.97
2023-04-20T10:51:33.792Z,98069.56
2023-04-20T10:52:36.145Z,98065.97
2023-04-20T10:53:37.576Z,98059.28
2023-04-20T10:54:40.167Z,98057.88
2023-04-20T10:55:41.573Z,98055.53
2023-04-20T10:56:46.765Z,98064.88
2023-04-20T10:57:49.045Z,98057.22
2023-04-20T10:58:50.340Z,98056.16
2023-04-20T10:59:51.721Z,98055.53
2023-04-20T11:01:04.008Z,98048.53
2023-04-20T11:02:08.769Z,98050.19
2023-04-20T11:03:11.462Z,98050.81
2023-04-20T11:04:13.129Z,98037.56
2023-04-20T11:05:14.850Z,98039.56
2023-04-20T11:06:16.534Z,98040.50
2023-04-20T11:07:17.824Z,98026.28
2023-04-20T11:08:19.172Z,98032.03
2023-04-20T11:09:22.411Z,98026.91
2023-04-20T11:10:36.467Z,98027.03
2023-04-20T11:11:37.846Z,98021.78
2023-04-20T11:12:39.325Z,98025.66
2023-04-20T11:13:40.807Z,98032.94
2023-04-20T11:14:53.584Z,98036.31
2023-04-20T11:15:54.924Z,98024.63
2023-04-20T11:16:56.396Z,98035.22
2023-04-20T11:18:09.221Z,98029.78
2023-04-20T11:19:10.629Z,98032.44
2023-04-20T11:20:13.840Z,98032.91
2023-04-20T11:21:15.193Z,98031.47
2023-04-20T11:22:22.852Z,98035.19
2023-04-20T11:23:25.058Z,98042.50
2023-04-20T11:24:31.481Z,98027.53
2023-04-20T11:25:32.953Z,98033.84
2023-04-20T11:26:37.497Z,98028.59
2023-04-20T11:27:39.830Z,98021.09
2023-04-20T11:28:56.240Z,98022.59
2023-04-20T11:29:58.374Z,98020.00
2023-04-20T11:31:00.224Z,98017.72
2023-04-20T11:32:04.763Z,98010.56
2023-04-20T11:33:06.338Z,98015.34
2023-04-20T11:34:17.396Z,98012.34
2023-04-20T11:35:18.767Z,98013.03
2023-04-20T11:36:24.158Z,98012.66
2023-04-20T11:37:25.481Z,98019.00
2023-04-20T11:38:32.174Z,98012.53
2023-04-20T11:39:33.706Z,98017.34
2023-04-20T11:40:35.840Z,98017.75
2023-04-20T11:41:37.205Z,98020.50
2023-04-20T11:42:38.573Z,98023.72
2023-04-20T11:43:39.883Z,98027.59
2023-04-20T11:44:41.218Z,98027.00
2023-04-20T11:45:42.625Z,98032.47
2023-04-20T11:46:44.721Z,98026.00
2023-04-20T11:47:46.155Z,98025.81
2023-04-20T11:48:47.505Z,98032.94
2023-04-20T11:49:48.889Z,98033.19
2023-04-20T11:50:50.491Z,98029.47
2023-04-20T11:51:52.232Z,98031.75
2023-04-20T11:52:53.575Z,98031.06
2023-04-20T11:53:54.928Z,98032.16
2023-04-20T11:54:56.250Z,98032.16
2023-04-20T11:57:40.670Z,98031.69
2023-04-20T11:58:42.036Z,98036.84
2023-04-20T11:59:43.363Z,98038.91
2023-04-20T12:00:44.640Z,98032.69
2023-04-20T12:01:46.133Z,98035.69
2023-04-20T12:02:47.599Z,98040.44
2023-04-20T12:03:49.065Z,98030.78
2023-04-20T12:04:50.755Z,98039.22
2023-04-20T12:05:52.251Z,98034.19
2023-04-20T12:06:53.593Z,98035.28
2023-04-20T12:07:54.947Z,98032.09
2023-04-20T12:08:56.232Z,98030.06
2023-04-20T12:09:57.559Z,98030.38
2023-04-20T12:10:58.921Z,98035.66
2023-04-20T12:12:00.192Z,98028.16
2023-04-20T12:13:01.517Z,98026.41
2023-04-20T12:14:02.902Z,98017.22
2023-04-20T12:15:04.703Z,98012.69
2023-04-20T12:16:08.784Z,98023.66
2023-04-20T12:17:10.146Z,98013.66